Station Historical Data
Daily Summary for July 2, 2017 Units:  Metric    English   Both
« Previous Day
Next Day »
Daily Weekly Monthly Yearly Custom
  High: Low: Average:
Temperature: 26.2 °C 14.8 °C 21.2 °C
Dew Point: 20 °C 13.5 °C 16.6 °C
Humidity: 93% 56% 76%
Wind Speed: 29km/h 0km/h 6.9km/h
Wind Gust: 41.8km/h - -
Wind- - SW
Pressure: 1015.5 hPa 1013.1 hPa -
Precipitation: 0 mm    
Historical Graphs
 
 
Tabular Data for July 2, 2017
Time Temperature Dew Point Pressure Wind Wind Speed Wind Gust Humidity Rainfall Rate (Hourly)
00:04 18.8 °C 16.2 °C 1013.1 hPa Calm     85% 0 mm
00:09 18.7 °C 16.2 °C 1013.1 hPa Calm     85% 0 mm
00:14 18.5 °C 16.1 °C 1013.1 hPa Calm     86% 0 mm
00:19 18.3 °C 15.7 °C 1013.1 hPa Calm   8 km/h 85% 0 mm
00:24 18.1 °C 15.7 °C 1013.1 hPa South 1.6 km/h 8 km/h 86% 0 mm
00:29 18.1 °C 15.7 °C 1013.1 hPa Calm   4.8 km/h 86% 0 mm
00:34 17.9 °C 15.6 °C 1013.1 hPa Calm   4.8 km/h 86% 0 mm
00:39 17.8 °C 15.4 °C 1013.1 hPa Calm   3.2 km/h 86% 0 mm
00:44 17.7 °C 15.6 °C 1013.1 hPa Calm   3.2 km/h 87% 0 mm
00:49 17.7 °C 15.3 °C 1013.1 hPa South 1.6 km/h 4.8 km/h 86% 0 mm
00:54 17.7 °C 15.3 °C 1013.1 hPa South 3.2 km/h 4.8 km/h 86% 0 mm
00:59 17.7 °C 15.3 °C 1013.1 hPa Calm   3.2 km/h 86% 0 mm
01:05 17.8 °C 15.4 °C 1013.4 hPa Calm   4.8 km/h 86% 0 mm
01:10 17.9 °C 15.5 °C 1013.4 hPa Calm     86% 0 mm
01:15 18 °C 15.4 °C 1013.4 hPa Calm     85% 0 mm
01:20 18.2 °C 15.6 °C 1013.4 hPa Calm   1.6 km/h 85% 0 mm
01:25 18.1 °C 15.4 °C 1013.4 hPa Calm   3.2 km/h 84% 0 mm
01:30 18 °C 15.3 °C 1013.4 hPa Calm     84% 0 mm
01:35 17.9 °C 15.2 °C 1013.4 hPa Calm     84% 0 mm
01:40 17.8 °C 15.1 °C 1013.4 hPa Calm     84% 0 mm
01:45 17.6 °C 15.1 °C 1013.4 hPa Calm     85% 0 mm
01:50 17.6 °C 15 °C 1013.4 hPa Calm     85% 0 mm
01:55 17.6 °C 15 °C 1013.4 hPa Calm     85% 0 mm
02:00 17.6 °C 15.2 °C 1013.4 hPa Calm     86% 0 mm
02:05 17.6 °C 15.1 °C 1013.4 hPa Calm     85% 0 mm
02:10 17.6 °C 15.1 °C 1013.4 hPa Calm     85% 0 mm
02:15 17.6 °C 15 °C 1013.4 hPa Calm     85% 0 mm
02:20 17.4 °C 14.9 °C 1013.4 hPa Calm     85% 0 mm
02:25 17.4 °C 14.8 °C 1013.4 hPa Calm     85% 0 mm
02:30 17.3 °C 14.9 °C 1013.4 hPa Calm     86% 0 mm
02:35 17.3 °C 14.9 °C 1013.4 hPa Calm     86% 0 mm
02:40 17.2 °C 14.8 °C 1013.4 hPa Calm     86% 0 mm
02:45 17.1 °C 14.9 °C 1013.4 hPa Calm     87% 0 mm
02:50 16.9 °C 14.8 °C 1013.4 hPa Calm     87% 0 mm
02:55 16.8 °C 14.6 °C 1013.8 hPa Calm     87% 0 mm
03:00 16.7 °C 14.7 °C 1013.4 hPa Calm     88% 0 mm
03:05 16.6 °C 14.6 °C 1013.4 hPa Calm     88% 0 mm
03:10 16.6 °C 14.6 °C 1013.4 hPa Calm     88% 0 mm
03:15 16.5 °C 14.5 °C 1013.4 hPa Calm     88% 0 mm
03:20 16.4 °C 14.4 °C 1013.4 hPa Calm     88% 0 mm
03:25 16.3 °C 14.3 °C 1013.4 hPa Calm     88% 0 mm
03:30 16.2 °C 14.3 °C 1013.4 hPa Calm     89% 0 mm
03:35 16.1 °C 14.3 °C 1013.4 hPa Calm     89% 0 mm
03:40 16.1 °C 14.2 °C 1013.4 hPa Calm     89% 0 mm
03:45 16 °C 14.2 °C 1013.4 hPa Calm     89% 0 mm
03:50 15.9 °C 14.1 °C 1013.4 hPa Calm     89% 0 mm
03:55 15.9 °C 14.3 °C 1013.8 hPa Calm     90% 0 mm
04:00 15.8 °C 14.2 °C 1013.8 hPa Calm     90% 0 mm
04:05 15.9 °C 14.3 °C 1013.8 hPa Calm     90% 0 mm
04:10 15.8 °C 14.2 °C 1013.8 hPa Calm     90% 0 mm
04:15 15.8 °C 14.2 °C 1013.8 hPa Calm     90% 0 mm
04:20 15.8 °C 14.2 °C 1013.8 hPa Calm     90% 0 mm
04:25 15.7 °C 14.1 °C 1013.8 hPa Calm     90% 0 mm
04:29 15.7 °C 14.2 °C 1013.8 hPa Calm     91% 0 mm
04:34 15.6 °C 14.2 °C 1013.8 hPa Calm     91% 0 mm
04:40 15.5 °C 14.1 °C 1013.8 hPa Calm     91% 0 mm
04:45 15.4 °C 14 °C 1013.8 hPa Calm     91% 0 mm
04:50 15.4 °C 14 °C 1013.8 hPa Calm     91% 0 mm
04:55 15.4 °C 14 °C 1013.8 hPa Calm     91% 0 mm
05:00 15.3 °C 13.9 °C 1013.8 hPa Calm     91% 0 mm
05:05 15.3 °C 13.8 °C 1013.8 hPa Calm     91% 0 mm
05:10 15.3 °C 13.8 °C 1013.8 hPa Calm     91% 0 mm
05:15 15.2 °C 13.9 °C 1013.8 hPa Calm     92% 0 mm
05:20 15.2 °C 13.9 °C 1013.8 hPa Calm     92% 0 mm
05:25 15.1 °C 13.8 °C 1013.8 hPa Calm     92% 0 mm
05:30 15.1 °C 13.8 °C 1013.8 hPa Calm     92% 0 mm
05:35 15.1 °C 13.8 °C 1013.8 hPa Calm     92% 0 mm
05:40 14.9 °C 13.7 °C 1014.1 hPa Calm     92% 0 mm
05:45 14.9 °C 13.7 °C 1014.1 hPa Calm     92% 0 mm
05:49 14.9 °C 13.7 °C 1014.1 hPa Calm     92% 0 mm
05:55 14.9 °C 13.7 °C 1014.1 hPa Calm     92% 0 mm
06:00 14.9 °C 13.6 °C 1014.1 hPa Calm     92% 0 mm
06:05 14.9 °C 13.6 °C 1014.1 hPa Calm     92% 0 mm
06:10 14.8 °C 13.5 °C 1014.1 hPa Calm     92% 0 mm
06:15 14.9 °C 13.6 °C 1014.4 hPa Calm     92% 0 mm
06:20 14.9 °C 13.7 °C 1014.4 hPa Calm     92% 0 mm
06:25 15 °C 13.7 °C 1014.4 hPa Calm     92% 0 mm
06:30 15.2 °C 14.1 °C 1014.8 hPa Calm     93% 0 mm
06:35 15.4 °C 14.3 °C 1014.4 hPa Calm     93% 0 mm
06:40 15.7 °C 14.6 °C 1014.4 hPa Calm     93% 0 mm
06:45 16.1 °C 15 °C 1014.8 hPa Calm     93% 0 mm
06:50 16.3 °C 15.2 °C 1014.8 hPa Calm     93% 0 mm
06:55 16.4 °C 15.3 °C 1014.8 hPa Calm     93% 0 mm
07:00 16.7 °C 15.3 °C 1014.8 hPa Calm     92% 0 mm
07:04 16.9 °C 15.6 °C 1014.8 hPa Calm     92% 0 mm
07:10 17.3 °C 15.8 °C 1014.8 hPa Calm     91% 0 mm
07:15 17.6 °C 15.9 °C 1014.8 hPa Calm     90% 0 mm
07:20 18 °C 15.8 °C 1014.8 hPa Calm     87% 0 mm
07:25 18.4 °C 15.9 °C 1014.8 hPa Calm     85% 0 mm
07:29 18.8 °C 15.7 °C 1014.8 hPa Calm   3.2 km/h 82% 0 mm
07:35 19.1 °C 16.1 °C 1014.8 hPa SSW 1.6 km/h 4.8 km/h 83% 0 mm
07:40 19.1 °C 16.2 °C 1014.8 hPa SSW 1.6 km/h 4.8 km/h 83% 0 mm
07:45 19.6 °C 16.6 °C 1014.8 hPa Calm   3.2 km/h 83% 0 mm
07:50 19.6 °C 16.6 °C 1014.8 hPa Calm     83% 0 mm
07:55 19.6 °C 16.4 °C 1014.8 hPa Calm     82% 0 mm
08:00 19.7 °C 16.7 °C 1014.8 hPa Calm   6.4 km/h 83% 0 mm
08:04 19.8 °C 16.7 °C 1014.8 hPa SSW 1.6 km/h 6.4 km/h 82% 0 mm
08:10 20.2 °C 16.8 °C 1014.8 hPa SSW 1.6 km/h 8 km/h 81% 0 mm
08:15 20.3 °C 16.9 °C 1014.8 hPa SW 1.6 km/h 8 km/h 81% 0 mm
08:20 20.4 °C 16.8 °C 1014.8 hPa SSW 3.2 km/h 6.4 km/h 80% 0 mm
08:25 20.5 °C 17.1 °C 1014.8 hPa SSW 3.2 km/h 9.7 km/h 81% 0 mm
08:34 20.7 °C 17.1 °C 1014.8 hPa South 3.2 km/h 11.3 km/h 80% 0 mm
08:40 20.6 °C 16.8 °C 1014.8 hPa SSW 3.2 km/h 11.3 km/h 79% 0 mm
08:45 20.9 °C 17.5 °C 1014.8 hPa South 3.2 km/h 9.7 km/h 81% 0 mm
08:50 20.7 °C 17.2 °C 1014.8 hPa SSW 8 km/h 9.7 km/h 80% 0 mm
08:54 21 °C 17.4 °C 1014.8 hPa SW 4.8 km/h 9.7 km/h 80% 0 mm
08:59 21.1 °C 17.3 °C 1014.8 hPa SW 4.8 km/h 9.7 km/h 79% 0 mm
09:05 21.4 °C 17.6 °C 1014.8 hPa SSW 3.2 km/h 9.7 km/h 79% 0 mm
09:10 21.8 °C 17.8 °C 1015.1 hPa SSW 3.2 km/h 8 km/h 78% 0 mm
09:15 21.9 °C 17.4 °C 1015.1 hPa SSW 4.8 km/h 11.3 km/h 76% 0 mm
09:20 22.1 °C 17.7 °C 1015.1 hPa SW 4.8 km/h 11.3 km/h 76% 0 mm
09:24 22.4 °C 17.9 °C 1015.1 hPa WSW 6.4 km/h 9.7 km/h 76% 0 mm
09:30 22.4 °C 17.8 °C 1015.1 hPa SSW 4.8 km/h 9.7 km/h 75% 0 mm
09:34 22.7 °C 18 °C 1015.1 hPa SW 3.2 km/h 9.7 km/h 75% 0 mm
09:40 22.9 °C 18.3 °C 1015.1 hPa SSW 6.4 km/h 12.9 km/h 75% 0 mm
09:44 22.7 °C 18 °C 1015.1 hPa SW 6.4 km/h 11.3 km/h 75% 0 mm
09:50 22.6 °C 17.9 °C 1015.1 hPa WSW 6.4 km/h 11.3 km/h 75% 0 mm
09:54 22.4 °C 17.8 °C 1015.1 hPa WSW 6.4 km/h 11.3 km/h 75% 0 mm
09:59 22.5 °C 17.8 °C 1015.1 hPa WSW 4.8 km/h 9.7 km/h 75% 0 mm
10:05 23 °C 18.3 °C 1015.1 hPa WSW 4.8 km/h 12.9 km/h 75% 0 mm
10:10 23 °C 18.1 °C 1015.1 hPa WSW 6.4 km/h 12.9 km/h 74% 0 mm
10:15 23.2 °C 18.5 °C 1015.1 hPa WSW 8 km/h 11.3 km/h 75% 0 mm
10:20 23.2 °C 18.1 °C 1015.1 hPa WSW 8 km/h 9.7 km/h 73% 0 mm
10:24 23.3 °C 17.9 °C 1015.1 hPa WSW 6.4 km/h 12.9 km/h 72% 0 mm
10:30 22.9 °C 17.8 °C 1015.1 hPa WSW 4.8 km/h 12.9 km/h 73% 0 mm
10:35 23.3 °C 17.9 °C 1015.1 hPa WSW 6.4 km/h 12.9 km/h 72% 0 mm
10:39 23.2 °C 17.8 °C 1015.1 hPa SW 4.8 km/h 11.3 km/h 72% 0 mm
10:44 23.7 °C 19.2 °C 1015.1 hPa South 3.2 km/h 11.3 km/h 76% 0 mm
10:49 23.9 °C 18.6 °C 1015.1 hPa SSW 9.7 km/h 12.9 km/h 72% 0 mm
10:54 23.8 °C 18 °C 1015.5 hPa SW 8 km/h 16.1 km/h 70% 0 mm
10:59 23.7 °C 17.7 °C 1015.1 hPa WSW 8 km/h 16.1 km/h 69% 0 mm
11:05 23.6 °C 17.8 °C 1015.1 hPa SW 4.8 km/h 11.3 km/h 70% 0 mm
11:10 23.7 °C 17.9 °C 1015.1 hPa WSW 11.3 km/h 16.1 km/h 70% 0 mm
11:15 24.4 °C 18.6 °C 1015.1 hPa West 9.7 km/h 12.9 km/h 70% 0 mm
11:20 24.5 °C 18.7 °C 1015.1 hPa West 6.4 km/h 12.9 km/h 70% 0 mm
11:24 24.3 °C 18.4 °C 1015.1 hPa WSW 8 km/h 14.5 km/h 70% 0 mm
11:29 24.2 °C 18.6 °C 1015.1 hPa WSW 8 km/h 14.5 km/h 71% 0 mm
11:34 23.9 °C 18.1 °C 1015.1 hPa WSW 8 km/h 14.5 km/h 70% 0 mm
11:40 23.9 °C 18.6 °C 1015.1 hPa WSW 8 km/h 14.5 km/h 72% 0 mm
11:45 23.9 °C 18.3 °C 1015.5 hPa WSW 8 km/h 14.5 km/h 71% 0 mm
11:49 23.6 °C 18.4 °C 1015.5 hPa West 11.3 km/h 16.1 km/h 73% 0 mm
11:54 23.7 °C 18.6 °C 1015.1 hPa WSW 4.8 km/h 16.1 km/h 73% 0 mm
11:59 24.8 °C 19.7 °C 1015.1 hPa WSW 3.2 km/h 14.5 km/h 73% 0 mm
12:05 25.1 °C 19.3 °C 1015.1 hPa SSW 9.7 km/h 12.9 km/h 70% 0 mm
12:10 24.7 °C 18.6 °C 1015.1 hPa WSW 4.8 km/h 19.3 km/h 69% 0 mm
12:14 24.5 °C 18.7 °C 1015.1 hPa SSW 8 km/h 19.3 km/h 70% 0 mm
12:19 24.6 °C 19.4 °C 1015.1 hPa SSW 6.4 km/h 14.5 km/h 73% 0 mm
12:25 24.6 °C 18.5 °C 1015.1 hPa WSW 4.8 km/h 16.1 km/h 69% 0 mm
12:29 24.1 °C 18.4 °C 1015.1 hPa SW 8 km/h 16.1 km/h 71% 0 mm
12:35 23.9 °C 18.6 °C 1015.1 hPa SW 8 km/h 22.5 km/h 72% 0 mm
12:39 23.9 °C 18.6 °C 1015.1 hPa SW 9.7 km/h 22.5 km/h 72% 0 mm
12:45 24.2 °C 19.1 °C 1015.1 hPa WSW 8 km/h 20.9 km/h 73% 0 mm
12:50 24.2 °C 18.8 °C 1015.1 hPa West 4.8 km/h 20.9 km/h 72% 0 mm
12:54 23.9 °C 18.6 °C 1015.5 hPa WSW 9.7 km/h 20.9 km/h 72% 0 mm
12:59 24.1 °C 18.9 °C 1015.1 hPa SSW 8 km/h 19.3 km/h 73% 0 mm
13:04 24.6 °C 19.4 °C 1015.1 hPa SW 6.4 km/h 17.7 km/h 73% 0 mm
13:09 24.9 °C 19.7 °C 1014.8 hPa West 4.8 km/h 19.3 km/h 73% 0 mm
13:14 25.4 °C 20 °C 1014.8 hPa West 8 km/h 16.1 km/h 72% 0 mm
13:19 25.1 °C 18.9 °C 1014.8 hPa WSW 6.4 km/h 17.7 km/h 69% 0 mm
13:24 25.4 °C 19.6 °C 1014.8 hPa SW 9.7 km/h 19.3 km/h 70% 0 mm
13:30 25.4 °C 19.3 °C 1014.8 hPa SW 9.7 km/h 19.3 km/h 69% 0 mm
13:34 25.4 °C 18.9 °C 1014.8 hPa SW 9.7 km/h 22.5 km/h 67% 0 mm
13:39 24.9 °C 19.1 °C 1014.8 hPa WSW 11.3 km/h 22.5 km/h 70% 0 mm
13:45 24.6 °C 18.6 °C 1014.8 hPa WSW 9.7 km/h 19.3 km/h 69% 0 mm
13:50 24.7 °C 18.8 °C 1014.8 hPa SW 8 km/h 22.5 km/h 70% 0 mm
13:54 25.1 °C 19.3 °C 1014.8 hPa WSW 11.3 km/h 22.5 km/h 70% 0 mm
13:59 25 °C 18.4 °C 1014.8 hPa WSW 11.3 km/h 20.9 km/h 67% 0 mm
14:05 25.2 °C 18.9 °C 1014.8 hPa West 12.9 km/h 20.9 km/h 68% 0 mm
14:09 25.5 °C 19.2 °C 1014.8 hPa SW 17.7 km/h 24.1 km/h 68% 0 mm
14:14 25.8 °C 19.2 °C 1014.8 hPa SW 11.3 km/h 17.7 km/h 67% 0 mm
14:19 25.8 °C 19.4 °C 1014.8 hPa SW 14.5 km/h 16.1 km/h 68% 0 mm
14:24 25.4 °C 18.6 °C 1014.8 hPa WSW 11.3 km/h 25.7 km/h 66% 0 mm
14:29 25.1 °C 18.6 °C 1014.4 hPa WSW 12.9 km/h 27.4 km/h 67% 0 mm
14:34 25.3 °C 19 °C 1014.4 hPa SW 8 km/h 24.1 km/h 68% 0 mm
14:40 25.7 °C 18.9 °C 1014.4 hPa SW 14.5 km/h 20.9 km/h 66% 0 mm
14:45 25.8 °C 18.2 °C 1014.4 hPa West 17.7 km/h 24.1 km/h 63% 0 mm
14:49 26.1 °C 18.4 °C 1014.4 hPa WSW 6.4 km/h 24.1 km/h 63% 0 mm
14:54 25.9 °C 18.1 °C 1014.4 hPa WSW 12.9 km/h 27.4 km/h 62% 0 mm
14:59 26 °C 17.4 °C 1014.4 hPa WSW 11.3 km/h 27.4 km/h 59% 0 mm
15:04 26.2 °C 17.3 °C 1014.4 hPa WSW 12.9 km/h 25.7 km/h 58% 0 mm
15:10 26 °C 16.8 °C 1014.1 hPa WSW 12.9 km/h 25.7 km/h 57% 0 mm
15:14 25.7 °C 16.3 °C 1014.1 hPa SW 14.5 km/h 30.6 km/h 56% 0 mm
15:20 25.8 °C 16.9 °C 1014.1 hPa SW 14.5 km/h 30.6 km/h 58% 0 mm
15:24 25.4 °C 16.6 °C 1014.4 hPa SW 27.4 km/h 30.6 km/h 58% 0 mm
15:29 25.4 °C 17.3 °C 1014.4 hPa WSW 14.5 km/h 27.4 km/h 61% 0 mm
15:34 25.3 °C 17 °C 1014.4 hPa WSW 9.7 km/h 29 km/h 60% 0 mm
15:39 25.6 °C 18.1 °C 1014.4 hPa WSW 12.9 km/h 19.3 km/h 63% 0 mm
15:44 25.6 °C 17.2 °C 1014.4 hPa SSW 9.7 km/h 32.2 km/h 60% 0 mm
15:49 25.7 °C 17.3 °C 1014.4 hPa WSW 17.7 km/h 32.2 km/h 60% 0 mm
15:54 25.1 °C 16.6 °C 1014.4 hPa WSW 17.7 km/h 41.8 km/h 59% 0 mm
15:59 25.1 °C 16.8 °C 1014.4 hPa WSW 17.7 km/h 41.8 km/h 60% 0 mm
16:05 25.1 °C 16.8 °C 1014.4 hPa WSW 17.7 km/h 38.6 km/h 60% 0 mm
16:09 25.2 °C 17.1 °C 1014.4 hPa WSW 16.1 km/h 33.8 km/h 61% 0 mm
16:15 25.2 °C 16.6 °C 1014.4 hPa WSW 14.5 km/h 33.8 km/h 59% 0 mm
16:20 25.2 °C 17.2 °C 1014.4 hPa WSW 19.3 km/h 35.4 km/h 61% 0 mm
16:24 25.3 °C 17.3 °C 1014.4 hPa WSW 16.1 km/h 35.4 km/h 61% 0 mm
16:29 24.5 °C 16.7 °C 1014.4 hPa WSW 17.7 km/h 29 km/h 62% 0 mm
16:34 23.9 °C 16.9 °C 1014.1 hPa WSW 11.3 km/h 33.8 km/h 65% 0 mm
16:39 24.2 °C 17 °C 1014.1 hPa West 6.4 km/h 27.4 km/h 64% 0 mm
16:44 24.7 °C 16.9 °C 1014.1 hPa SW 19.3 km/h 35.4 km/h 62% 0 mm
16:49 24.9 °C 17.2 °C 1014.4 hPa SSW 17.7 km/h 35.4 km/h 62% 0 mm
16:54 24.9 °C 17.2 °C 1014.4 hPa WSW 25.7 km/h 35.4 km/h 62% 0 mm
16:59 24.9 °C 17.1 °C 1014.1 hPa WSW 16.1 km/h 35.4 km/h 62% 0 mm
17:04 24.8 °C 17.3 °C 1014.1 hPa WSW 16.1 km/h 32.2 km/h 63% 0 mm
17:09 24.7 °C 17.2 °C 1014.1 hPa SW 29 km/h 29 km/h 63% 0 mm
17:14 24.9 °C 17.6 °C 1014.4 hPa WSW 22.5 km/h 29 km/h 64% 0 mm
17:19 24.7 °C 17.2 °C 1014.1 hPa WSW 14.5 km/h 33.8 km/h 63% 0 mm
17:24 24.5 °C 17 °C 1014.1 hPa WSW 19.3 km/h 33.8 km/h 63% 0 mm
17:29 24.4 °C 16.9 °C 1014.1 hPa WSW 17.7 km/h 37 km/h 63% 0 mm
17:34 24.5 °C 17 °C 1014.1 hPa WSW 17.7 km/h 37 km/h 63% 0 mm
17:39 24.7 °C 16.7 °C 1014.1 hPa WSW 14.5 km/h 32.2 km/h 61% 0 mm
17:44 24.7 °C 16.9 °C 1014.1 hPa SW 24.1 km/h 27.4 km/h 62% 0 mm
17:49 24.7 °C 16.9 °C 1014.1 hPa WSW 11.3 km/h 30.6 km/h 62% 0 mm
17:54 24.5 °C 16.7 °C 1014.1 hPa WSW 14.5 km/h 30.6 km/h 62% 0 mm
17:59 24.4 °C 16.6 °C 1014.1 hPa WNW 11.3 km/h 33.8 km/h 62% 0 mm
18:04 24.3 °C 16.8 °C 1014.1 hPa WSW 14.5 km/h 33.8 km/h 63% 0 mm
18:09 24.4 °C 16.9 °C 1014.1 hPa West 19.3 km/h 37 km/h 63% 0 mm
18:14 24.1 °C 16.9 °C 1014.1 hPa WSW 17.7 km/h 25.7 km/h 64% 0 mm
18:19 24.1 °C 16.8 °C 1013.8 hPa West 9.7 km/h 24.1 km/h 64% 0 mm
18:24 23.8 °C 16.6 °C 1014.1 hPa SW 12.9 km/h 29 km/h 64% 0 mm
18:29 23.7 °C 16.7 °C 1014.1 hPa SW 14.5 km/h 32.2 km/h 65% 0 mm
18:34 23.7 °C 16.4 °C 1014.1 hPa WSW 12.9 km/h 32.2 km/h 64% 0 mm
18:39 23.7 °C 16.5 °C 1014.1 hPa WSW 12.9 km/h 33.8 km/h 64% 0 mm
18:44 23.6 °C 16.3 °C 1014.1 hPa SW 16.1 km/h 30.6 km/h 64% 0 mm
18:49 23.5 °C 16.3 °C 1014.1 hPa SW 19.3 km/h 35.4 km/h 64% 0 mm
18:54 23.4 °C 16.2 °C 1014.1 hPa WSW 14.5 km/h 35.4 km/h 64% 0 mm
18:59 23.4 °C 16.2 °C 1014.1 hPa WSW 14.5 km/h 27.4 km/h 64% 0 mm
19:04 23.4 °C 16.2 °C 1014.1 hPa SSE 14.5 km/h 29 km/h 64% 0 mm
19:09 23.3 °C 16.1 °C 1014.1 hPa WSW 11.3 km/h 22.5 km/h 64% 0 mm
19:14 23.3 °C 16.3 °C 1014.1 hPa WSW 11.3 km/h 27.4 km/h 65% 0 mm
19:19 23.1 °C 16.3 °C 1014.1 hPa SSW 14.5 km/h 27.4 km/h 66% 0 mm
19:24 22.9 °C 16.5 °C 1014.1 hPa WSW 16.1 km/h 22.5 km/h 67% 0 mm
19:29 22.9 °C 16.4 °C 1014.1 hPa SW 12.9 km/h 22.5 km/h 67% 0 mm
19:34 22.8 °C 16.6 °C 1013.8 hPa SW 12.9 km/h 24.1 km/h 68% 0 mm
19:39 22.7 °C 16.5 °C 1013.8 hPa SW 11.3 km/h 24.1 km/h 68% 0 mm
19:44 22.7 °C 16.5 °C 1013.8 hPa SW 11.3 km/h 24.1 km/h 68% 0 mm
19:49 22.6 °C 16.3 °C 1013.8 hPa SW 12.9 km/h 19.3 km/h 68% 0 mm
19:54 22.4 °C 16.5 °C 1013.4 hPa WSW 12.9 km/h 22.5 km/h 69% 0 mm
19:59 22.3 °C 16.3 °C 1013.4 hPa WSW 11.3 km/h 24.1 km/h 69% 0 mm
20:04 22.2 °C 16.4 °C 1013.4 hPa SW 3.2 km/h 19.3 km/h 70% 0 mm
20:09 22.1 °C 16.6 °C 1013.4 hPa West 11.3 km/h 20.9 km/h 71% 0 mm
20:14 21.9 °C 16.4 °C 1013.4 hPa West 11.3 km/h 24.1 km/h 71% 0 mm
20:19 21.9 °C 16.6 °C 1013.4 hPa SW 8 km/h 24.1 km/h 72% 0 mm
20:24 21.8 °C 16.6 °C 1013.4 hPa West 6.4 km/h 19.3 km/h 72% 0 mm
20:29 21.8 °C 16.5 °C 1013.4 hPa SW 9.7 km/h 19.3 km/h 72% 0 mm
20:34 21.7 °C 16.4 °C 1013.4 hPa SW 9.7 km/h 20.9 km/h 72% 0 mm
20:39 21.7 °C 16.4 °C 1013.4 hPa SW 11.3 km/h 20.9 km/h 72% 0 mm
20:44 21.6 °C 16.3 °C 1013.4 hPa WSW 8 km/h 19.3 km/h 72% 0 mm
20:49 21.7 °C 16.4 °C 1013.8 hPa SSW 8 km/h 20.9 km/h 72% 0 mm
20:54 21.7 °C 16.4 °C 1013.8 hPa West 11.3 km/h 27.4 km/h 72% 0 mm
20:59 21.7 °C 16.4 °C 1013.8 hPa SW 6.4 km/h 20.9 km/h 72% 0 mm
21:04 21.6 °C 16.6 °C 1013.4 hPa SW 6.4 km/h 16.1 km/h 73% 0 mm
21:09 21.6 °C 16.5 °C 1013.4 hPa WSW 6.4 km/h 17.7 km/h 73% 0 mm
21:14 21.6 °C 16.6 °C 1013.4 hPa WSW 4.8 km/h 16.1 km/h 73% 0 mm
21:19 21.6 °C 16.6 °C 1013.4 hPa SW 9.7 km/h 19.3 km/h 73% 0 mm
21:24 21.7 °C 16.6 °C 1013.8 hPa SW 11.3 km/h 20.9 km/h 73% 0 mm
21:29 21.7 °C 16.6 °C 1013.8 hPa WSW 9.7 km/h 20.9 km/h 73% 0 mm
21:34 21.7 °C 16.7 °C 1013.8 hPa WSW 9.7 km/h 20.9 km/h 73% 0 mm
21:39 21.7 °C 16.7 °C 1013.8 hPa SW 9.7 km/h 20.9 km/h 73% 0 mm
21:44 21.7 °C 16.7 °C 1013.8 hPa SW 9.7 km/h 24.1 km/h 73% 0 mm
21:49 21.7 °C 16.7 °C 1013.4 hPa SW 8 km/h 20.9 km/h 73% 0 mm
21:54 21.7 °C 16.7 °C 1013.8 hPa WNW 12.9 km/h 20.9 km/h 73% 0 mm
21:59 21.8 °C 16.7 °C 1013.8 hPa SW 9.7 km/h 20.9 km/h 73% 0 mm
22:04 21.9 °C 16.6 °C 1013.8 hPa SSE 9.7 km/h 22.5 km/h 72% 0 mm
22:09 21.9 °C 16.7 °C 1013.8 hPa SW 9.7 km/h 24.1 km/h 72% 0 mm
22:14 21.9 °C 16.7 °C 1013.8 hPa South 4.8 km/h 14.5 km/h 72% 0 mm
22:19 21.9 °C 16.7 °C 1013.4 hPa SW 14.5 km/h 19.3 km/h 72% 0 mm
22:24 21.9 °C 16.6 °C 1013.4 hPa WSW 17.7 km/h 24.1 km/h 72% 0 mm
22:29 21.9 °C 16.4 °C 1013.8 hPa WSW 9.7 km/h 27.4 km/h 71% 0 mm
22:34 21.9 °C 16.6 °C 1013.8 hPa SW 11.3 km/h 27.4 km/h 72% 0 mm
22:39 21.9 °C 16.6 °C 1013.8 hPa SW 11.3 km/h 24.1 km/h 72% 0 mm
22:44 21.8 °C 16.6 °C 1013.8 hPa WSW 12.9 km/h 22.5 km/h 72% 0 mm
22:49 21.8 °C 16.6 °C 1013.8 hPa WSW 6.4 km/h 20.9 km/h 72% 0 mm
22:54 21.7 °C 16.7 °C 1013.8 hPa SW 16.1 km/h 19.3 km/h 73% 0 mm
22:59 21.7 °C 16.7 °C 1013.8 hPa WSW 9.7 km/h 22.5 km/h 73% 0 mm
23:04 21.7 °C 16.7 °C 1013.8 hPa WSW 9.7 km/h 22.5 km/h 73% 0 mm
23:09 21.6 °C 16.6 °C 1013.8 hPa WSW 9.7 km/h 22.5 km/h 73% 0 mm
23:14 21.6 °C 16.7 °C 1014.1 hPa WSW 9.7 km/h 19.3 km/h 74% 0 mm
23:19 21.6 °C 16.7 °C 1014.1 hPa WSW 11.3 km/h 19.3 km/h 74% 0 mm
23:24 21.6 °C 16.7 °C 1014.1 hPa WSW 9.7 km/h 19.3 km/h 74% 0 mm
23:29 21.5 °C 16.9 °C 1014.1 hPa SW 12.9 km/h 19.3 km/h 75% 0 mm
23:34 21.6 °C 16.9 °C 1014.1 hPa SSW 3.2 km/h 24.1 km/h 75% 0 mm
23:39 21.5 °C 16.9 °C 1014.1 hPa West 11.3 km/h 17.7 km/h 75% 0 mm
23:44 21.4 °C 16.8 °C 1014.1 hPa WSW 4.8 km/h 19.3 km/h 75% 0 mm
23:49 21.4 °C 16.8 °C 1014.4 hPa South 11.3 km/h 17.7 km/h 75% 0 mm
23:54 21.4 °C 17.1 °C 1014.4 hPa SW 6.4 km/h 19.3 km/h 76% 0 mm
23:59 21.4 °C 17.1 °C 1014.1 hPa WSW 9.7 km/h 19.3 km/h 76% 0 mm
Buffalo, New York, USA
Compliments of Weather Underground - 2.5 mb